EST,Max TemperatureF,Mean TemperatureF,Min TemperatureF,Max Dew PointF,MeanDew PointF,Min DewpointF,Max Humidity, Mean Humidity, Min Humidity, Max Sea Level PressureIn, Mean Sea Level PressureIn, Min Sea Level PressureIn, Max VisibilityMiles, Mean VisibilityMiles, Min VisibilityMiles, Max Wind SpeedMPH, Mean Wind SpeedMPH, Max Gust SpeedMPH,PrecipitationIn, CloudCover, Events, WindDirDegrees
2012-2-1,44,39,34,41,31,27,87,76,65,30.16,30.01,29.75,10,9,6,14,9,18,0.00,6,,289
2012-2-2,37,32,28,28,27,26,89,75,65,30.41,30.29,30.17,10,10,10,7,4,,0.00,6,,229
2012-2-3,37,34,30,30,29,26,89,78,70,30.50,30.45,30.40,10,9,5,6,4,,0.00,8,,261
2012-2-4,39,33,27,28,25,23,85,72,55,30.42,30.30,30.18,10,10,9,7,2,,0.00,0,,249
2012-2-5,39,32,26,29,26,22,86,75,58,30.29,30.22,30.17,10,10,10,10,7,,0.00,2,,304
2012-2-6,43,36,30,32,28,26,89,79,60,30.17,30.09,30.00,10,8,4,24,13,24,0.00,3,,247
2012-2-7,34,29,24,28,25,18,93,78,64,30.42,30.28,30.12,10,8,0,16,8,,0.00,6,Fog-Rain-Snow,26
2012-2-8,35,26,16,19,14,7,85,62,48,30.41,30.30,30.20,10,10,10,17,6,21,0.00,1,,261
2012-2-9,39,32,24,20,18,16,75,61,39,30.20,30.12,30.03,10,10,10,21,12,29,0.00,0,,233
2012-2-10,30,20,10,29,17,5,93,82,67,30.06,29.96,29.86,10,2,0,26,13,34,0.03,8,Fog-Snow,341
2012-2-11,21,12,3,9,3,-4,73,64,55,30.25,30.17,30.07,10,10,3,23,16,28,0.00,6,Snow,323
2012-2-12,30,24,17,15,12,9,71,63,51,30.17,30.12,30.09,10,10,10,18,14,22,0.00,4,,264
2012-2-13,35,27,19,23,15,10,88,61,42,30.09,30.03,29.95,10,9,2,20,13,25,0.00,3,Snow,232
2012-2-14,33,30,26,29,26,20,93,84,75,30.01,29.89,29.83,10,5,1,10,7,,0.00,8,Snow,206
2012-2-15,39,36,33,32,29,27,89,77,68,30.15,30.10,30.00,10,8,3,16,9,24,0.01,7,Rain,203
2012-2-16,41,36,32,36,33,26,93,89,75,30.05,29.96,29.90,10,4,0,16,7,23,0.19,7,Fog-Rain,223
2012-2-17,41,36,30,31,28,20,96,81,43,30.11,30.04,29.93,10,5,0,16,8,,0.10,6,Fog-Snow,206
2012-2-18,33,28,24,31,24,13,100,79,54,30.27,30.02,29.89,10,6,0,20,8,26,0.08,8,Fog-Snow,312
2012-2-19,30,22,15,17,14,10,84,70,56,30.27,30.23,30.18,10,10,7,9,4,,0.00,2,,75
2012-2-20,37,28,18,23,19,14,89,72,52,30.39,30.29,30.13,10,10,8,9,4,,0.00,0,,174
2012-2-21,37,32,28,34,29,20,89,82,67,30.09,29.69,29.56,10,6,1,16,9,,0.00,6,Rain-Snow,189
2012-2-22,43,38,32,31,25,22,82,64,45,29.60,29.48,29.39,10,10,8,20,14,26,0.00,3,,237
2012-2-23,39,30,21,30,27,18,96,80,55,29.66,29.52,29.41,10,5,0,9,5,,0.02,6,Fog-Snow,224
2012-2-24,33,30,28,30,27,21,93,82,66,29.72,29.50,29.33,10,4,0,24,14,32,0.04,8,Fog-Snow,341
2012-2-25,33,30,26,21,18,13,80,64,43,30.33,29.98,29.73,10,10,6,18,14,28,0.00,6,Snow,294
2012-2-26,36,28,19,23,18,12,75,63,52,30.40,30.27,30.04,10,10,10,16,7,22,0.00,3,,177
2012-2-27,41,34,24,25,23,18,78,64,47,30.48,30.18,29.98,10,10,10,28,15,40,0.00,4,,245
2012-2-28,37,29,21,27,21,16,85,72,57,30.53,30.41,30.16,10,10,10,14,4,,0.00,3,,110
2012-2-29,36,33,30,36,31,24,100,91,67,30.13,29.73,29.46,10,3,0,21,12,28,0.18,8,Fog-Rain-Snow,90